Nearby METAR Reports

 

GCLP - Las Palmas/Gando, Spain
Distance from station: NE 26km
Updated: 27/02/2020 03:30
Light drizzle, Mostly cloudy
Light drizzle, Mostly cloudy
 Wind from N
Wind: N 30 km/h
Temperature: 17°C
Dew Point: 15°C
Humidity: 88%
Barometer: 1021 hPa
Summary: Light Drizzle
Clouds: Mostly cloudy
Visibility: 6 km
Cloud details: Few Clouds 457 m
Mostly cloudy 762 m
2020/02/27 03:30 GCLP 270330Z 01016KT 6000 -DZ FEW015 BKN025 17/15 Q1021 NOSIG
GCTS - Tenerife Sur/Rei, Spain
Distance from station: WNW 102km
Updated: 27/02/2020 03:30
Few Clouds
Few Clouds
 Wind from NNE
Wind: NNE 13 km/h
Temperature: 17°C
Dew Point: 12°C
Humidity: 73%
Barometer: 1021 hPa
Clouds: Few Clouds
Visibility: 10 km
Cloud details: Few Clouds 671 m
2020/02/27 03:30 GCTS 270330Z 02007KT 350V050 9999 FEW022 17/12 Q1021 NOSIG
 
GCXO - Tenerife/Los Rod, Spain
Distance from station: NW 110km
Updated: 27/02/2020 03:30
Few Clouds
Few Clouds
 Wind from WNW
Wind: WNW 11 km/h
Temperature: 11°C
Dew Point: 10°C
Humidity: 94%
Barometer: 1023 hPa
Clouds: Few Clouds
Visibility: 10 km
Cloud details: Few Clouds 244 m
2020/02/27 03:30 GCXO 270330Z AUTO 30006KT 270V340 9999 FEW008 11/10 Q1023
GCGM - La Gomera Arpt, Spain
Distance from station: W 164km
Updated: 27/02/2020 03:30
Clear
Clear
 Wind from W
Wind: W 11 km/h
Temperature: 17°C
Dew Point: 13°C
Humidity: 77%
Barometer: 1021 hPa
Summary: Clear
Visibility: greater than 10 km
2020/02/27 03:30 GCGM 270330Z AUTO 27006KT CAVOK 17/13 Q1021 RMK R09/27008KT 230V310 ARP/29006KT 260V320
 
GCFV - Fuerteventura Ar, Spain
Distance from station: ENE 183km
Updated: 27/02/2020 03:30
Partly cloudy
Partly cloudy
 Wind from N
Wind: N 17 km/h
Temperature: 18°C
Dew Point: 14°C
Humidity: 78%
Barometer: 1020 hPa
Clouds: Partly cloudy
Visibility: 10 km
Cloud details: Partly cloudy 823 m
2020/02/27 03:30 GCFV 270330Z AUTO 36009KT 9999 SCT027 18/14 Q1020
GCHI - Hierro Airport, Spain
Distance from station: W 226km
Updated: 27/02/2020 03:30
Overcast
Overcast
 Wind from NE
Wind: NE 28 km/h
Temperature: 19°C
Dew Point: 15°C
Humidity: 78%
Barometer: 1022 hPa
Clouds: Overcast
Visibility: 10 km
Cloud details: Overcast 671 m
2020/02/27 03:30 GCHI 270330Z AUTO 04015KT 9999 OVC022 19/15 Q1022
 
GCLA - La Palma Airport, Spain
Distance from station: WNW 233km
Updated: 27/02/2020 03:30
Mostly cloudy
Mostly cloudy
 Wind from NW
Wind: NW 17 km/h
Temperature: 17°C
Dew Point: 15°C
Humidity: 88%
Barometer: 1022 hPa
Clouds: Mostly cloudy
Visibility: 10 km
Cloud details: Mostly cloudy 701 m
2020/02/27 03:30 GCLA 270330Z AUTO 32009KT 9999 BKN023 17/15 Q1022
GCRR - Arrecife/Lanzaro, Spain
Distance from station: NE 234km
Updated: 27/02/2020 03:30
Partly cloudy
Partly cloudy
 Wind from NNE
Wind: NNE 24 km/h
Temperature: 18°C
Dew Point: 13°C
Humidity: 73%
Barometer: 1020 hPa
Clouds: Partly cloudy
Visibility: 10 km
Cloud details: Partly cloudy 792 m
2020/02/27 03:30 GCRR 270330Z AUTO 03013KT 9999 SCT026 18/13 Q1020
 
LPMA - Funchal/Madeira, Portugal
Distance from station: NNW 556km
Updated: 27/02/2020 03:30
Mostly cloudy
Mostly cloudy
 Wind from NNE
Wind: NNE 20 km/h
Temperature: 16°C
Dew Point: 10°C
Humidity: 68%
Barometer: 1025 hPa
Clouds: Mostly cloudy
Visibility: 10 km
Cloud details: Partly cloudy 396 m
Mostly cloudy 914 m
2020/02/27 03:30 LPMA 270330Z 02011KT 9999 SCT013 BKN030 16/10 Q1025
LPPS - Porto Santo Isla, Portugal
Distance from station: N 594km
Updated: 27/02/2020 03:30
Partly cloudy
Partly cloudy
 Wind from ENE
Wind: ENE 17 km/h
Temperature: 15°C
Dew Point: 11°C
Humidity: 77%
Barometer: 1026 hPa
Clouds: Partly cloudy
Visibility: 10 km
Cloud details: Partly cloudy 457 m
Partly cloudy 914 m
2020/02/27 03:30 LPPS 270330Z 06009KT 030V110 9999 SCT015 SCT030 15/11 Q1026